Meldrum Bay, Ontario

7:40 AM EST on December 28, 2014 (GMT -0500)
Cockburn Island | Change Station
CLOSE
Current Station
Personal Weather Station
Location: Tolsmaville, ONTARIO
Elevation: 593 ft
Nearby Weather Stations

Elev 593 ft 45.96 °N, 83.32 °W | Updated 3 minutes ago

Scattered Clouds
Scattered Clouds
26.7 °F
Feels Like 27 °F
N
3.0
Wind Variable Wind from SW
Gusts 5.0 mph

Today is forecast to be nearly the same temperature as yesterday.

Today
High -- | Low -- °F
--% Chance of Precip.
Yesterday
High -- | Low -- °F
Precip. -- in
8:14 AM 4:55 PM
Waxing Crescent, 47% visible
Pressure 29.96 in
Visibility 9.0 miles
Clouds Scattered Clouds 3900 ft
Windchill 27 °F
Dew Point 20 °F
Humidity 76%
Rainfall 0.24 in
Snow Depth Not available.
UV 0 out of 12
Pollen Not available.
Air Quality Not available.
Flu Activity Not available.
METAR CYZE 281200Z AUTO 27011G16KT 9SM SCT039 M02/M06 A2994 RMK ICG SLP146

More Conditions Fewer Conditions

Pressure 29.96 in
Visibility 9.0 miles
Clouds Scattered Clouds 3900 ft
Windchill 27 °F
Dew Point 20 °F
Humidity 76%
Rainfall 0.24 in
Snow Depth Not available.
UV 0 out of 12
Pollen Not available.
Air Quality Not available.
Flu Activity Not available.
METAR CYZE 281200Z AUTO 27011G16KT 9SM SCT039 M02/M06 A2994 RMK ICG SLP146

More Conditions Fewer Conditions

10-Day Weather Forecast

Almanac

Astronomy

Dec. 28, 2014 Rise Set
Actual Time
Civil Twilight
Nautical Twilight
Astronomical Twilight
Moon
Length of Visible Light
Length of Day
Tomorrow will be .
, % of the Moon is Illuminated

Today's Extremes

Country Highs Country Lows

Community

WunderPhotos

Upload Photos

1,781,249 photos uploaded!

WunderBlogs® & News

Nearby

Air Quality

  Air Quality AQ Index Pollutant
Not available.

Snow Depth

Station Depth Elevation

Earthquake Activity

City Distance Mag. Time & Date
Minimum magnitude displayed is 2.5.

Coastal Water Temperatures

Place Temperature

Nearby Weather Stations